Time;durP1;ratioP1;P1;durP2;ratioP2;P2;SDS_P1;SDS_P2;PMS_P1;PMS_P2;Temp;Humidity;BMP_temperature;BMP_pressure;BME280_temperature;BME280_humidity;BME280_pressure;Samples;Min_cycle;Max_cycle;Signal;HPM_P1;HPM_P2
2023/07/11 00:00:21;;;;;;;8.50;4.70;;;17.60;1.00;;;;;;5097618;28;20461;-60
2023/07/11 00:02:50;;;;;;;6.17;4.60;;;17.60;1.00;;;;;;5097000;28;20460;-60
2023/07/11 00:05:18;;;;;;;8.10;4.80;;;17.50;1.00;;;;;;5096955;28;20496;-61
2023/07/11 00:07:46;;;;;;;5.60;4.50;;;17.50;1.00;;;;;;5097019;28;20541;-60
2023/07/11 00:10:18;;;;;;;7.73;4.70;;;17.40;1.00;;;;;;5097405;28;20460;-60
2023/07/11 00:12:46;;;;;;;6.67;5.10;;;17.40;1.00;;;;;;5096922;28;20460;-60
2023/07/11 00:15:16;;;;;;;6.03;5.00;;;17.40;8.30;;;;;;5098745;28;20514;-60
2023/07/11 00:17:45;;;;;;;5.70;5.13;;;17.30;68.10;;;;;;5101293;28;20506;-60
2023/07/11 00:20:13;;;;;;;6.60;4.93;;;17.30;99.90;;;;;;5101370;28;20958;-60
2023/07/11 00:22:42;;;;;;;9.30;4.80;;;17.20;99.90;;;;;;5101624;28;20513;-61
2023/07/11 00:25:10;;;;;;;6.20;4.60;;;17.20;99.90;;;;;;5101290;28;20748;-60
2023/07/11 00:27:39;;;;;;;5.00;4.50;;;17.20;99.90;;;;;;5100831;28;20464;-60
2023/07/11 00:30:08;;;;;;;6.30;4.90;;;17.20;99.90;;;;;;5101347;28;20470;-60
2023/07/11 00:32:35;;;;;;;6.37;5.20;;;17.20;99.90;;;;;;5101048;28;20464;-61
2023/07/11 00:35:03;;;;;;;9.37;4.87;;;17.20;99.90;;;;;;5100786;28;20467;-61
2023/07/11 00:37:30;;;;;;;7.70;4.70;;;17.10;99.90;;;;;;5101006;28;20911;-60
2023/07/11 00:39:58;;;;;;;5.53;4.37;;;17.20;99.90;;;;;;5100677;28;20484;-60
2023/07/11 00:42:25;;;;;;;5.53;4.93;;;17.10;69.80;;;;;;5101250;28;20470;-60
2023/07/11 00:44:57;;;;;;;7.53;5.60;;;17.10;50.50;;;;;;5100366;28;20467;-60
2023/07/11 00:47:26;;;;;;;5.27;4.77;;;17.10;99.90;;;;;;5100642;28;20460;-60
2023/07/11 00:49:56;;;;;;;6.17;5.00;;;17.00;99.90;;;;;;5100571;28;20430;-60
2023/07/11 00:52:26;;;;;;;6.60;5.20;;;17.00;99.90;;;;;;5100920;28;20888;-60
2023/07/11 00:54:59;;;;;;;6.47;4.93;;;17.00;99.90;;;;;;5100176;28;20516;-60
2023/07/11 00:57:29;;;;;;;7.57;5.50;;;17.00;72.90;;;;;;5100650;28;20870;-60
2023/07/11 00:59:58;;;;;;;6.97;5.43;;;17.00;60.60;;;;;;5100709;28;20555;-60
2023/07/11 01:02:28;;;;;;;7.77;5.03;;;17.00;39.90;;;;;;5100748;28;20460;-60
2023/07/11 01:04:56;;;;;;;5.80;5.20;;;17.00;40.50;;;;;;5100444;28;20513;-60
2023/07/11 01:07:27;;;;;;;4.97;4.50;;;16.90;57.60;;;;;;5100103;28;20456;-60
2023/07/11 01:09:55;;;;;;;6.77;4.80;;;16.90;99.90;;;;;;5100079;28;20488;-60
2023/07/11 01:12:22;;;;;;;7.77;5.17;;;16.80;92.40;;;;;;5100299;28;20563;-61
2023/07/11 01:14:51;;;;;;;6.03;4.67;;;16.80;58.90;;;;;;5099959;28;20494;-60
2023/07/11 01:17:28;;;;;;;6.30;4.60;;;16.80;74.60;;;;;;5099594;28;20551;-60
2023/07/11 01:19:56;;;;;;;5.80;5.20;;;16.80;99.90;;;;;;5099995;28;20464;-59
2023/07/11 01:22:29;;;;;;;8.60;5.47;;;16.70;99.90;;;;;;5100367;28;20563;-60
2023/07/11 01:25:02;;;;;;;6.37;5.50;;;16.80;78.40;;;;;;5099643;28;20521;-60
2023/07/11 01:27:29;;;;;;;5.60;4.87;;;16.70;20.10;;;;;;5099595;28;20749;-60
2023/07/11 01:29:56;;;;;;;8.40;5.70;;;16.80;16.40;;;;;;5100104;28;20528;-60
2023/07/11 01:32:23;;;;;;;6.03;4.53;;;16.80;1.00;;;;;;5099890;28;20559;-61
2023/07/11 01:34:50;;;;;;;8.93;5.00;;;16.70;10.00;;;;;;5099623;28;20774;-60
2023/07/11 01:37:18;;;;;;;7.60;4.47;;;16.70;47.40;;;;;;5099531;28;20509;-60
2023/07/11 01:39:46;;;;;;;5.83;4.63;;;16.60;1.20;;;;;;5099282;28;21008;-60
2023/07/11 01:42:13;;;;;;;9.67;4.30;;;16.60;28.40;;;;;;5099905;28;20766;-60
2023/07/11 01:44:41;;;;;;;5.10;4.60;;;16.50;99.90;;;;;;5100102;28;20462;-60
2023/07/11 01:47:08;;;;;;;7.20;4.80;;;16.50;99.90;;;;;;5099537;28;20780;-60
2023/07/11 01:49:36;;;;;;;7.10;4.80;;;16.60;52.70;;;;;;5099582;28;20492;-60
2023/07/11 01:52:05;;;;;;;5.60;4.63;;;16.60;66.80;;;;;;5099907;28;20470;-61
2023/07/11 01:54:32;;;;;;;8.47;4.40;;;16.60;34.10;;;;;;5099458;28;20470;-60
2023/07/11 01:57:01;;;;;;;6.27;4.40;;;16.60;36.90;;;;;;5099280;28;20863;-60
2023/07/11 01:59:29;;;;;;;8.53;4.33;;;16.60;1.00;;;;;;5099154;28;20555;-61
2023/07/11 02:01:56;;;;;;;7.47;5.13;;;16.60;2.60;;;;;;5098993;28;20492;-61
2023/07/11 02:04:24;;;;;;;9.30;4.60;;;16.60;1.00;;;;;;5099533;28;20510;-61
2023/07/11 02:06:51;;;;;;;5.97;4.53;;;16.60;21.20;;;;;;5098832;28;20460;-61
2023/07/11 02:09:19;;;;;;;5.40;4.87;;;16.50;1.00;;;;;;5098859;28;20497;-60
2023/07/11 02:11:47;;;;;;;10.40;5.00;;;16.60;31.00;;;;;;5098782;28;20464;-60
2023/07/11 02:14:17;;;;;;;7.63;5.10;;;16.60;1.00;;;;;;5099237;28;20872;-60
2023/07/11 02:16:45;;;;;;;8.37;4.53;;;16.60;1.00;;;;;;5098307;28;20464;-60
2023/07/11 02:19:12;;;;;;;5.30;4.37;;;16.60;2.40;;;;;;5099309;28;20514;-60
2023/07/11 02:21:40;;;;;;;7.20;5.23;;;16.60;1.00;;;;;;5099154;28;20855;-60
2023/07/11 02:24:08;;;;;;;5.67;4.33;;;16.60;1.00;;;;;;5099198;28;20471;-60
2023/07/11 02:26:36;;;;;;;5.20;4.70;;;16.50;15.80;;;;;;5098443;28;20461;-61
2023/07/11 02:29:03;;;;;;;7.67;4.97;;;16.40;34.10;;;;;;5098587;28;20577;-60
2023/07/11 02:31:33;;;;;;;7.23;4.43;;;16.40;75.30;;;;;;5098470;28;20463;-60
2023/07/11 02:34:01;;;;;;;5.00;4.30;;;16.40;56.00;;;;;;5098870;28;20555;-61
2023/07/11 02:36:29;;;;;;;5.60;4.60;;;16.30;92.50;;;;;;5098711;28;20467;-61
2023/07/11 02:39:00;;;;;;;6.67;3.93;;;16.30;99.90;;;;;;5097229;28;20576;-60
2023/07/11 02:41:27;;;;;;;6.90;4.53;;;16.30;99.90;;;;;;5098037;28;20559;-60
2023/07/11 02:43:55;;;;;;;6.70;4.43;;;16.30;99.90;;;;;;5098529;28;20769;-61
2023/07/11 02:46:22;;;;;;;5.90;4.60;;;16.40;99.90;;;;;;5098565;28;20456;-61
2023/07/11 02:48:51;;;;;;;6.90;4.67;;;16.30;99.90;;;;;;5098161;28;20489;-61
2023/07/11 02:51:19;;;;;;;7.07;4.93;;;16.30;99.90;;;;;;5098460;28;20568;-60
2023/07/11 02:53:46;;;;;;;7.00;4.53;;;16.30;82.30;;;;;;5097781;28;20555;-60
2023/07/11 02:56:16;;;;;;;5.53;4.30;;;16.30;99.90;;;;;;5098751;28;20457;-61
2023/07/11 02:58:44;;;;;;;9.43;4.77;;;16.40;6.70;;;;;;5097959;28;20768;-61
2023/07/11 03:01:11;;;;;;;5.93;4.70;;;16.40;1.00;;;;;;5097855;28;20464;-61
2023/07/11 03:03:38;;;;;;;5.63;4.93;;;16.40;1.00;;;;;;5098194;28;20495;-61
2023/07/11 03:06:07;;;;;;;6.00;4.63;;;16.40;1.00;;;;;;5098473;28;20831;-60
2023/07/11 03:08:34;;;;;;;7.23;4.40;;;16.40;1.00;;;;;;5098137;28;20949;-61
2023/07/11 03:11:02;;;;;;;5.80;4.30;;;16.40;1.00;;;;;;5097786;28;20460;-60
2023/07/11 03:13:29;;;;;;;8.20;5.03;;;16.40;1.00;;;;;;5097806;28;20464;-60
2023/07/11 03:16:02;;;;;;;5.10;4.60;;;16.40;1.00;;;;;;5098179;28;20464;-61
2023/07/11 03:18:29;;;;;;;4.93;3.90;;;16.50;1.00;;;;;;5097934;28;20465;-60
2023/07/11 03:20:58;;;;;;;5.80;5.07;;;16.60;1.00;;;;;;5097608;28;20921;-61
2023/07/11 03:23:28;;;;;;;6.43;4.57;;;16.60;1.00;;;;;;5097654;28;20811;-61
2023/07/11 03:25:55;;;;;;;6.83;4.30;;;16.60;1.00;;;;;;5097532;28;20513;-61
2023/07/11 03:28:23;;;;;;;7.97;4.70;;;16.60;1.00;;;;;;5097576;28;20941;-60
2023/07/11 03:30:51;;;;;;;5.93;4.50;;;16.60;1.00;;;;;;5097361;28;20503;-61
2023/07/11 03:33:18;;;;;;;9.70;4.87;;;16.70;1.00;;;;;;5097676;28;20755;-61
2023/07/11 03:35:49;;;;;;;4.70;3.87;;;16.80;1.00;;;;;;5097120;28;20563;-60
2023/07/11 03:38:16;;;;;;;8.57;4.50;;;16.80;1.00;;;;;;5097584;28;20514;-61
2023/07/11 03:40:45;;;;;;;8.50;4.50;;;16.80;1.00;;;;;;5096981;28;20572;-61
2023/07/11 03:43:12;;;;;;;6.40;4.13;;;16.80;1.00;;;;;;5096847;28;20423;-61
2023/07/11 03:45:43;;;;;;;8.77;4.70;;;16.80;1.00;;;;;;5097369;28;20464;-61
2023/07/11 03:48:10;;;;;;;7.67;5.03;;;16.80;1.00;;;;;;5096828;28;20472;-60
2023/07/11 03:50:37;;;;;;;5.73;4.00;;;16.90;1.00;;;;;;5097161;28;21023;-61
2023/07/11 03:53:05;;;;;;;5.23;4.53;;;16.80;1.00;;;;;;5097221;28;20915;-60
2023/07/11 03:55:32;;;;;;;5.93;4.57;;;16.90;1.00;;;;;;5097565;28;20805;-60
2023/07/11 03:58:01;;;;;;;5.23;4.40;;;16.90;1.00;;;;;;5097273;28;20468;-60
2023/07/11 04:00:28;;;;;;;5.50;4.40;;;17.00;1.00;;;;;;5097333;28;20457;-60
2023/07/11 04:02:55;;;;;;;5.30;4.00;;;17.00;1.00;;;;;;5096693;28;20555;-60
2023/07/11 04:05:23;;;;;;;8.40;4.47;;;16.90;1.00;;;;;;5097248;28;20539;-60
2023/07/11 04:07:50;;;;;;;5.13;4.23;;;17.00;1.00;;;;;;5097110;28;20559;-61
2023/07/11 04:10:17;;;;;;;4.67;3.87;;;16.90;1.00;;;;;;5097135;28;20578;-60
2023/07/11 04:12:45;;;;;;;4.73;3.80;;;16.90;1.00;;;;;;5096707;28;20460;-60
2023/07/11 04:15:14;;;;;;;5.53;4.90;;;17.00;1.00;;;;;;5096846;28;20472;-60
2023/07/11 04:17:41;;;;;;;7.37;4.93;;;17.00;1.00;;;;;;5097250;28;20901;-60
2023/07/11 04:20:10;;;;;;;7.73;4.40;;;17.00;1.00;;;;;;5097156;28;20462;-60
2023/07/11 04:22:38;;;;;;;7.00;4.73;;;17.00;1.00;;;;;;5097118;28;20464;-60
2023/07/11 04:25:06;;;;;;;7.37;4.87;;;17.00;1.00;;;;;;5096728;28;20486;-61
2023/07/11 04:27:33;;;;;;;7.00;4.40;;;17.10;1.00;;;;;;5097254;28;20747;-61
2023/07/11 04:30:01;;;;;;;5.53;4.03;;;17.20;1.00;;;;;;5097110;28;20492;-60
2023/07/11 04:32:29;;;;;;;7.00;3.97;;;17.20;1.00;;;;;;5096967;28;20467;-60
2023/07/11 04:34:56;;;;;;;7.20;4.90;;;17.30;1.00;;;;;;5097274;28;20464;-61
2023/07/11 04:37:24;;;;;;;6.70;3.93;;;17.40;1.00;;;;;;5096962;28;20460;-61
2023/07/11 04:39:51;;;;;;;8.30;5.10;;;17.40;1.00;;;;;;5096045;28;20490;-61
2023/07/11 04:42:21;;;;;;;7.13;4.93;;;17.50;1.00;;;;;;5096782;28;20837;-60
2023/07/11 04:44:48;;;;;;;12.87;3.87;;;17.60;1.00;;;;;;5096464;28;20466;-60
2023/07/11 04:47:16;;;;;;;5.57;4.17;;;17.60;1.00;;;;;;5096545;28;20464;-60
2023/07/11 04:49:44;;;;;;;5.90;4.30;;;17.70;1.00;;;;;;5096517;28;20488;-60
2023/07/11 04:52:17;;;;;;;5.10;4.13;;;17.80;1.00;;;;;;5096930;28;20508;-60
2023/07/11 04:54:44;;;;;;;4.80;4.30;;;17.90;1.00;;;;;;5096580;28;20465;-60
2023/07/11 04:57:12;;;;;;;4.50;4.10;;;18.00;99.90;;;;;;5096904;28;20463;-60
2023/07/11 04:59:39;;;;;;;4.70;4.20;;;18.10;99.90;;;;;;5096853;28;20495;-60
2023/07/11 05:02:06;;;;;;;4.80;4.30;;;18.10;99.90;;;;;;5097733;28;20460;-60
2023/07/11 05:04:34;;;;;;;6.43;4.93;;;18.20;99.90;;;;;;5100893;28;20467;-61
2023/07/11 05:07:04;;;;;;;8.73;4.27;;;18.30;99.90;;;;;;5100018;28;20502;-60
2023/07/11 05:09:31;;;;;;;6.33;4.57;;;18.40;99.90;;;;;;5100369;28;20999;-61
2023/07/11 05:11:59;;;;;;;6.20;4.80;;;18.40;99.90;;;;;;5100570;28;20507;-59
2023/07/11 05:14:28;;;;;;;4.90;4.40;;;18.60;99.90;;;;;;5100577;28;20471;-60
2023/07/11 05:16:55;;;;;;;6.67;4.70;;;18.70;99.90;;;;;;5100031;28;20754;-60
2023/07/11 05:19:23;;;;;;;5.80;4.30;;;18.80;99.90;;;;;;5099846;28;20527;-60
2023/07/11 05:21:50;;;;;;;5.70;4.63;;;18.90;99.90;;;;;;5100331;28;20467;-60
2023/07/11 05:24:19;;;;;;;4.93;4.43;;;19.00;99.90;;;;;;5100109;28;20464;-60
2023/07/11 05:26:46;;;;;;;5.70;4.23;;;19.10;99.90;;;;;;5099580;28;20435;-60
2023/07/11 05:29:13;;;;;;;4.73;4.33;;;19.20;99.90;;;;;;5099854;28;20460;-60
2023/07/11 05:31:40;;;;;;;6.43;3.97;;;19.40;99.90;;;;;;5100081;28;20543;-60
2023/07/11 05:34:07;;;;;;;4.60;4.00;;;19.50;99.90;;;;;;5100022;28;20465;-60
2023/07/11 05:36:36;;;;;;;4.27;3.90;;;19.60;99.90;;;;;;5099443;28;20464;-60
2023/07/11 05:39:10;;;;;;;5.43;4.53;;;19.80;99.90;;;;;;5099390;28;20912;-59
2023/07/11 05:41:44;;;;;;;5.60;4.70;;;19.90;99.90;;;;;;5099700;28;20475;-60
2023/07/11 05:44:13;;;;;;;4.17;3.70;;;20.10;99.90;;;;;;5099785;28;20463;-60
2023/07/11 05:46:43;;;;;;;4.97;4.47;;;20.20;99.90;;;;;;5097651;28;20468;-61
2023/07/11 05:49:10;;;;;;;5.33;4.17;;;20.40;99.90;;;;;;5099252;28;20525;-61
2023/07/11 05:51:38;;;;;;;6.50;4.03;;;20.70;99.90;;;;;;5099563;28;20917;-60
2023/07/11 05:54:05;;;;;;;4.93;4.00;;;20.90;99.90;;;;;;5099528;28;20464;-60
2023/07/11 05:56:33;;;;;;;6.10;4.30;;;21.20;99.90;;;;;;5099574;28;20460;-60
2023/07/11 05:59:01;;;;;;;6.80;4.57;;;21.40;99.90;;;;;;5097822;28;20499;-61
2023/07/11 06:01:31;;;;;;;4.87;3.63;;;21.60;99.90;;;;;;5099159;28;20820;-61
2023/07/11 06:04:07;;;;;;;6.07;4.53;;;21.90;99.90;;;;;;5099351;28;20460;-61
2023/07/11 06:06:41;;;;;;;4.20;3.57;;;22.20;99.90;;;;;;5098683;28;20543;-61
2023/07/11 06:09:10;;;;;;;5.10;4.60;;;22.30;99.90;;;;;;5099003;28;20563;-61
2023/07/11 06:11:37;;;;;;;4.87;4.10;;;22.50;99.90;;;;;;5098954;28;20853;-60
2023/07/11 06:14:06;;;;;;;4.93;4.17;;;22.70;99.90;;;;;;5099085;28;20465;-61
2023/07/11 06:16:33;;;;;;;3.97;3.57;;;22.70;99.90;;;;;;5098986;28;20460;-61
2023/07/11 06:19:00;;;;;;;4.90;3.70;;;22.80;99.90;;;;;;5098648;28;20464;-61
2023/07/11 06:21:27;;;;;;;4.47;3.97;;;23.00;99.90;;;;;;5098604;28;20456;-61
2023/07/11 06:23:55;;;;;;;4.57;3.80;;;23.20;99.90;;;;;;5099110;28;20571;-61
2023/07/11 06:26:22;;;;;;;3.93;3.50;;;23.40;99.90;;;;;;5099229;28;20502;-61
2023/07/11 06:28:49;;;;;;;4.10;3.80;;;23.50;99.90;;;;;;5098633;28;20559;-61
2023/07/11 06:31:18;;;;;;;4.30;3.83;;;23.60;99.90;;;;;;5098510;28;20575;-61
2023/07/11 06:33:46;;;;;;;5.30;3.90;;;23.70;99.90;;;;;;5097196;28;20472;-61
2023/07/11 06:36:13;;;;;;;4.40;3.97;;;23.80;99.90;;;;;;5098789;28;20460;-61
2023/07/11 06:38:40;;;;;;;5.10;3.80;;;23.90;99.90;;;;;;5098916;28;20551;-61
2023/07/11 06:41:08;;;;;;;4.20;3.63;;;24.00;99.90;;;;;;5098253;28;20554;-61
2023/07/11 06:43:35;;;;;;;3.90;3.50;;;24.20;99.90;;;;;;5098944;28;20457;-61
2023/07/11 06:46:03;;;;;;;6.07;4.03;;;24.40;99.90;;;;;;5098770;28;20466;-59
2023/07/11 06:48:33;;;;;;;5.57;3.70;;;24.50;99.90;;;;;;5095261;28;20480;-61
2023/07/11 06:51:03;;;;;;;6.97;3.77;;;24.60;99.90;;;;;;5097623;28;20492;-61
2023/07/11 06:53:33;;;;;;;4.17;3.37;;;24.70;99.90;;;;;;5098322;28;20534;-62
2023/07/11 06:56:00;;;;;;;4.83;3.83;;;24.90;99.90;;;;;;5097772;28;20462;-62
2023/07/11 06:58:28;;;;;;;5.37;3.70;;;25.00;99.90;;;;;;5098367;28;20535;-62
2023/07/11 07:00:57;;;;;;;5.13;4.00;;;25.10;99.90;;;;;;5098039;28;20457;-61
2023/07/11 07:03:25;;;;;;;4.07;3.63;;;25.20;99.90;;;;;;5097887;28;20464;-61
2023/07/11 07:05:55;;;;;;;3.83;3.43;;;25.40;99.90;;;;;;5096059;28;20893;-62
2023/07/11 07:08:24;;;;;;;6.43;4.03;;;25.60;99.90;;;;;;5096952;28;20464;-62
2023/07/11 07:10:52;;;;;;;4.33;3.93;;;25.50;99.90;;;;;;5096024;28;20581;-61
2023/07/11 07:13:22;;;;;;;4.37;3.87;;;25.70;99.90;;;;;;5098397;28;20506;-62
2023/07/11 07:15:50;;;;;;;4.10;3.70;;;25.70;99.90;;;;;;5098156;28;20460;-62
2023/07/11 07:18:17;;;;;;;6.23;4.70;;;25.90;99.90;;;;;;5097401;28;20888;-62
2023/07/11 07:20:45;;;;;;;5.40;4.10;;;26.00;99.90;;;;;;5096637;28;20488;-62
2023/07/11 07:23:14;;;;;;;4.60;3.70;;;26.10;99.90;;;;;;5096779;28;20504;-61
2023/07/11 07:25:42;;;;;;;4.67;3.70;;;26.30;99.90;;;;;;5096185;28;20492;-62
2023/07/11 07:28:09;;;;;;;4.27;3.80;;;26.50;99.90;;;;;;5094532;28;20473;-61
2023/07/11 07:30:37;;;;;;;4.50;4.10;;;26.70;99.90;;;;;;5094437;28;20480;-62
2023/07/11 07:33:04;;;;;;;5.27;3.87;;;27.00;99.90;;;;;;5095312;28;20464;-62
2023/07/11 07:35:31;;;;;;;4.47;4.07;;;27.20;99.90;;;;;;5096266;28;20503;-62
2023/07/11 07:37:58;;;;;;;4.30;3.90;;;27.40;99.90;;;;;;5096235;28;20547;-62
2023/07/11 07:40:28;;;;;;;4.30;3.90;;;27.60;99.90;;;;;;5096232;28;20562;-62
2023/07/11 07:42:55;;;;;;;6.93;4.00;;;27.70;99.90;;;;;;5096704;28;20484;-62
2023/07/11 07:45:22;;;;;;;4.20;3.90;;;27.90;99.90;;;;;;5097688;28;20885;-62
2023/07/11 07:47:49;;;;;;;5.30;4.20;;;28.00;99.90;;;;;;5097496;28;20833;-63
2023/07/11 07:50:17;;;;;;;5.80;4.23;;;28.10;99.90;;;;;;5097474;28;20496;-62
2023/07/11 07:52:44;;;;;;;4.60;4.17;;;28.30;99.90;;;;;;5097064;28;20456;-62
2023/07/11 07:55:11;;;;;;;5.03;3.50;;;28.40;99.90;;;;;;5095326;28;20584;-62
2023/07/11 07:57:40;;;;;;;4.67;4.00;;;28.50;99.90;;;;;;5097190;28;20554;-63
2023/07/11 08:00:09;;;;;;;4.50;4.10;;;28.30;99.90;;;;;;5096055;28;20829;-63
2023/07/11 08:02:39;;;;;;;4.70;4.10;;;28.40;99.90;;;;;;5097235;28;20464;-62
2023/07/11 08:05:07;;;;;;;3.63;3.27;;;28.50;99.90;;;;;;5097174;28;20470;-61
2023/07/11 08:07:35;;;;;;;4.23;3.83;;;28.70;99.90;;;;;;5095576;28;20490;-62
2023/07/11 08:10:02;;;;;;;4.47;4.07;;;28.70;99.90;;;;;;5095295;28;20470;-63
2023/07/11 08:12:29;;;;;;;4.63;4.10;;;28.70;99.90;;;;;;5095871;28;20558;-62
2023/07/11 08:14:58;;;;;;;6.40;3.40;;;28.60;99.90;;;;;;5095442;28;20465;-62
2023/07/11 08:17:25;;;;;;;3.93;3.23;;;28.70;99.90;;;;;;5095205;28;20494;-63
2023/07/11 08:19:52;;;;;;;4.33;3.87;;;28.70;99.90;;;;;;5095683;28;20468;-62
2023/07/11 08:22:20;;;;;;;5.00;4.17;;;28.80;99.90;;;;;;5096131;28;20460;-63
2023/07/11 08:24:47;;;;;;;8.47;4.43;;;28.80;99.90;;;;;;5096606;28;20464;-63
2023/07/11 08:27:14;;;;;;;8.10;4.37;;;28.70;99.90;;;;;;5097027;28;20517;-62
2023/07/11 08:29:45;;;;;;;6.27;3.30;;;28.80;99.90;;;;;;5096876;28;20919;-64
2023/07/11 08:32:14;;;;;;;4.43;3.80;;;29.00;99.90;;;;;;5097338;28;20492;-63
2023/07/11 08:34:41;;;;;;;4.17;3.80;;;29.10;99.90;;;;;;5097435;28;20551;-63
2023/07/11 08:37:09;;;;;;;4.87;4.47;;;29.30;99.90;;;;;;5098578;28;20460;-63
2023/07/11 08:39:37;;;;;;;4.80;3.80;;;29.30;99.90;;;;;;5099071;28;20526;-64
2023/07/11 08:42:14;;;;;;;6.43;3.70;;;29.40;99.90;;;;;;5099787;28;20456;-63
2023/07/11 08:44:46;;;;;;;4.23;3.83;;;29.50;99.90;;;;;;5099379;28;20834;-63
2023/07/11 08:47:20;;;;;;;3.93;3.40;;;29.40;99.90;;;;;;5099807;28;20541;-63
2023/07/11 08:49:51;;;;;;;5.67;4.20;;;29.50;99.90;;;;;;5099777;28;20562;-62
2023/07/11 08:52:21;;;;;;;3.83;3.53;;;29.70;99.90;;;;;;5100094;28;20499;-63
2023/07/11 08:54:56;;;;;;;3.80;3.10;;;30.00;99.90;;;;;;5099396;28;20503;-64
2023/07/11 08:57:25;;;;;;;4.60;4.20;;;30.20;99.90;;;;;;5098760;28;20512;-61
2023/07/11 09:00:00;;;;;;;5.50;4.00;;;30.20;99.90;;;;;;5098973;28;20525;-63
2023/07/11 09:02:37;;;;;;;5.50;4.40;;;30.40;99.90;;;;;;5098969;28;20538;-61
2023/07/11 09:05:10;;;;;;;4.87;3.70;;;30.40;99.90;;;;;;5098622;28;20555;-63
2023/07/11 09:07:40;;;;;;;4.87;3.60;;;30.60;99.90;;;;;;5098606;28;20495;-63
2023/07/11 09:10:27;;;;;;;4.50;3.80;;;30.70;99.90;;;;;;5098241;28;20551;-63
2023/07/11 09:13:01;;;;;;;6.27;3.47;;;30.90;99.90;;;;;;5098710;28;20554;-64
2023/07/11 09:15:38;;;;;;;5.77;4.13;;;30.70;99.90;;;;;;5099021;28;20464;-63
2023/07/11 09:18:17;;;;;;;7.37;4.20;;;31.00;99.90;;;;;;5098731;28;20471;-63
2023/07/11 09:20:48;;;;;;;6.77;3.70;;;30.90;99.90;;;;;;5099389;28;20456;-63
2023/07/11 09:23:30;;;;;;;7.43;4.40;;;30.70;99.90;;;;;;5098979;28;20896;-63
2023/07/11 09:26:04;;;;;;;7.07;4.97;;;30.40;99.90;;;;;;5094584;28;20504;-62
2023/07/11 09:28:33;;;;;;;5.13;3.60;;;29.80;99.90;;;;;;5099185;28;20889;-63
2023/07/11 09:31:04;;;;;;;5.50;3.93;;;29.50;99.90;;;;;;5098771;28;20492;-63
2023/07/11 09:33:35;;;;;;;5.00;4.50;;;29.30;99.90;;;;;;5097965;28;20476;-62
2023/07/11 09:36:04;;;;;;;4.70;4.20;;;28.70;99.90;;;;;;5098655;28;20515;-63
2023/07/11 09:38:36;;;;;;;5.03;4.53;;;28.20;99.90;;;;;;5098871;28;20468;-62
2023/07/11 09:41:11;;;;;;;5.70;4.20;;;28.20;99.90;;;;;;5099929;28;20560;-61
2023/07/11 09:43:38;;;;;;;6.17;4.10;;;28.30;99.90;;;;;;5098824;28;20477;-63
2023/07/11 09:46:13;;;;;;;6.67;4.03;;;28.70;99.90;;;;;;5097907;28;20472;-63
2023/07/11 09:48:44;;;;;;;5.90;4.30;;;29.00;99.90;;;;;;5099085;28;20464;-62
2023/07/11 09:51:24;;;;;;;9.87;5.20;;;29.30;99.90;;;;;;5099126;28;20492;-62
2023/07/11 09:53:54;;;;;;;7.50;4.40;;;29.80;99.90;;;;;;5099457;28;20468;-62
2023/07/11 09:56:24;;;;;;;6.57;4.57;;;30.20;99.90;;;;;;5099304;28;20471;-62
2023/07/11 09:58:53;;;;;;;5.77;3.57;;;30.30;99.90;;;;;;5099299;28;20529;-62
2023/07/11 10:01:25;;;;;;;5.47;3.93;;;30.30;99.90;;;;;;5099324;28;20574;-62
2023/07/11 10:03:58;;;;;;;5.80;4.33;;;30.50;99.90;;;;;;5098629;28;20917;-62
2023/07/11 10:06:34;;;;;;;4.77;4.33;;;31.10;99.90;;;;;;5099373;28;20463;-62
2023/07/11 10:09:14;;;;;;;8.20;4.40;;;31.60;99.90;;;;;;5098949;28;20491;-62
2023/07/11 10:11:42;;;;;;;5.10;3.80;;;31.90;99.90;;;;;;5098255;28;20908;-62
2023/07/11 10:14:17;;;;;;;5.20;4.07;;;32.10;99.90;;;;;;5098915;28;20502;-62
2023/07/11 10:16:47;;;;;;;6.63;4.17;;;32.50;99.90;;;;;;5099142;28;20799;-62
2023/07/11 10:19:17;;;;;;;4.13;3.67;;;32.60;99.90;;;;;;5098954;28;20564;-62
2023/07/11 10:21:47;;;;;;;5.10;4.17;;;32.80;99.90;;;;;;5099059;28;20756;-62
2023/07/11 10:24:18;;;;;;;5.60;5.10;;;32.90;99.90;;;;;;5099108;28;20563;-63
2023/07/11 10:26:49;;;;;;;7.03;4.30;;;33.20;99.90;;;;;;5098466;28;20554;-62
2023/07/11 10:29:19;;;;;;;6.30;4.47;;;33.10;99.90;;;;;;5098751;28;20758;-62
2023/07/11 10:31:52;;;;;;;5.00;4.20;;;33.20;99.90;;;;;;5098653;28;20483;-63
2023/07/11 10:34:26;;;;;;;5.03;4.57;;;33.30;99.90;;;;;;5098945;28;20487;-63
2023/07/11 10:36:58;;;;;;;6.70;4.23;;;33.60;99.90;;;;;;5098438;28;20566;-63
2023/07/11 10:39:29;;;;;;;5.33;4.80;;;33.60;99.90;;;;;;5098236;28;20552;-63
2023/07/11 10:42:02;;;;;;;7.30;3.90;;;33.50;99.90;;;;;;5098862;28;20459;-63
2023/07/11 10:44:36;;;;;;;6.67;4.23;;;33.60;99.90;;;;;;5098487;28;20455;-63
2023/07/11 10:47:05;;;;;;;5.53;4.47;;;33.60;99.90;;;;;;5098396;28;20520;-62
2023/07/11 10:49:39;;;;;;;5.07;4.67;;;33.30;99.90;;;;;;5098264;28;20740;-64
2023/07/11 10:52:19;;;;;;;6.47;4.77;;;33.20;99.90;;;;;;5098517;28;20988;-62
2023/07/11 10:54:53;;;;;;;7.60;4.80;;;33.30;99.90;;;;;;5098155;28;20505;-63
2023/07/11 10:57:34;;;;;;;6.17;5.07;;;33.50;99.90;;;;;;5097198;28;20460;-63
2023/07/11 11:00:06;;;;;;;5.90;5.13;;;33.60;99.90;;;;;;5097148;28;20545;-62
2023/07/11 11:02:42;;;;;;;5.87;4.50;;;33.70;99.90;;;;;;5097977;28;20724;-63
2023/07/11 11:05:21;;;;;;;5.17;4.20;;;34.00;99.90;;;;;;5097827;28;20434;-62
2023/07/11 11:07:55;;;;;;;5.43;4.80;;;33.90;99.90;;;;;;5097267;28;20465;-62
2023/07/11 11:10:35;;;;;;;6.60;5.27;;;34.10;99.90;;;;;;5097802;28;20495;-62
2023/07/11 11:13:09;;;;;;;6.27;5.00;;;34.10;99.90;;;;;;5097687;28;20499;-63
2023/07/11 11:15:45;;;;;;;7.17;4.20;;;34.10;99.90;;;;;;5097378;28;20455;-64
2023/07/11 11:18:33;;;;;;;5.70;3.97;;;34.40;99.90;;;;;;5098055;28;20460;-63
2023/07/11 11:21:09;;;;;;;4.97;4.57;;;34.80;99.90;;;;;;5097702;28;20466;-62
2023/07/11 11:23:51;;;;;;;5.13;4.37;;;34.50;99.90;;;;;;5097327;28;20495;-64
2023/07/11 11:26:29;;;;;;;3.93;3.63;;;34.40;99.90;;;;;;5096078;28;20470;-61
2023/07/11 11:29:08;;;;;;;6.10;4.20;;;34.40;99.90;;;;;;5096610;28;20533;-62
2023/07/11 11:31:42;;;;;;;5.40;4.60;;;34.80;99.90;;;;;;5096477;28;20513;-62
2023/07/11 11:34:21;;;;;;;6.17;4.97;;;34.70;99.90;;;;;;5097036;28;20498;-63
2023/07/11 11:37:06;;;;;;;4.78;4.35;;;35.00;99.90;;;;;;5096869;28;20476;-62
2023/07/11 11:39:44;;;;;;;8.07;5.40;;;35.30;99.90;;;;;;5096758;28;20336;-63
2023/07/11 11:42:20;;;;;;;5.50;5.00;;;35.40;99.90;;;;;;5097796;28;20300;-62
2023/07/11 11:44:52;;;;;;;6.47;5.40;;;35.30;99.90;;;;;;5097415;28;20225;-62
2023/07/11 11:47:21;;;;;;;6.15;4.60;;;35.50;99.90;;;;;;5097453;28;20300;-64
2023/07/11 11:49:50;;;;;;;5.40;4.90;;;35.80;99.90;;;;;;5097286;28;20300;-62
2023/07/11 11:52:21;;;;;;;5.38;4.88;;;35.40;99.90;;;;;;5097191;28;20226;-63
2023/07/11 11:54:49;;;;;;;6.20;4.50;;;35.30;99.90;;;;;;5097203;28;20579;-63
2023/07/11 11:57:23;;;;;;;6.07;5.13;;;35.40;99.90;;;;;;5097013;28;20205;-63
2023/07/11 11:59:51;;;;;;;4.40;4.10;;;35.80;99.90;;;;;;5097749;28;20216;-61
2023/07/11 12:02:29;;;;;;;6.60;5.22;;;35.80;99.90;;;;;;5097254;28;20672;-63
2023/07/11 12:05:02;;;;;;;5.60;4.85;;;35.60;99.90;;;;;;5097017;28;20214;-59
2023/07/11 12:07:36;;;;;;;5.35;4.90;;;35.30;99.90;;;;;;5097015;28;20290;-63
2023/07/11 12:10:16;;;;;;;5.40;5.00;;;35.30;99.90;;;;;;5097429;28;20683;-61
2023/07/11 12:13:19;;;;;;;6.03;4.50;;;35.20;99.90;;;;;;5101484;28;20544;-63
2023/07/11 12:15:54;;;;;;;5.32;4.50;;;35.50;99.90;;;;;;5095388;28;20209;-60
2023/07/11 12:18:41;;;;;;;5.85;5.35;;;35.80;99.90;;;;;;5101218;28;20205;-61
2023/07/11 12:21:32;;;;;;;9.32;5.22;;;35.70;99.90;;;;;;5101152;28;20206;-62
2023/07/11 12:24:23;;;;;;;6.45;5.78;;;35.90;99.90;;;;;;5101490;28;20638;-61
2023/07/11 12:26:52;;;;;;;5.10;4.70;;;36.10;99.90;;;;;;5101015;28;20686;-62
2023/07/11 12:29:39;;;;;;;5.47;4.97;;;35.80;99.90;;;;;;5101210;28;20219;-62
2023/07/11 12:32:40;;;;;;;6.25;5.65;;;35.90;99.90;;;;;;5101075;28;20656;-63
2023/07/11 12:35:17;;;;;;;4.95;4.45;;;36.10;99.90;;;;;;5101017;28;20228;-60
2023/07/11 12:38:11;;;;;;;5.60;4.83;;;35.80;99.90;;;;;;5100787;28;20216;-61
2023/07/11 12:40:49;;;;;;;5.90;5.30;;;35.80;99.90;;;;;;5100661;28;20564;-63
2023/07/11 12:43:20;;;;;;;5.47;4.97;;;35.70;99.90;;;;;;5100983;28;20430;-63
2023/07/11 12:45:51;;;;;;;6.97;5.57;;;36.00;99.90;;;;;;5101028;28;20435;-62
2023/07/11 12:48:20;;;;;;;5.90;5.40;;;36.00;99.90;;;;;;5100700;28;20455;-63
2023/07/11 12:50:49;;;;;;;6.13;5.55;;;36.20;99.90;;;;;;5100616;28;20206;-62
2023/07/11 12:53:17;;;;;;;6.68;5.97;;;36.50;99.90;;;;;;5099559;28;20225;-62
2023/07/11 12:55:47;;;;;;;5.90;5.40;;;36.20;99.90;;;;;;5100572;28;20248;-63
2023/07/11 12:58:19;;;;;;;7.20;6.65;;;36.30;99.90;;;;;;5100500;28;20210;-62
2023/07/11 13:00:47;;;;;;;6.47;5.93;;;36.60;99.90;;;;;;5098772;28;20202;-62
2023/07/11 13:03:23;;;;;;;8.77;6.07;;;36.40;99.90;;;;;;5099202;28;20248;-62